CheckWX is a tool to help pilots better visualize weather data.  It is not intended as a substitute for an official pre-flight weather briefing.

04:40:14 UTC

KBOI METAR
Boise Air Terminal / Gowen Field Airport
Boise, Idaho, USA
Current

47 mins ago

KBOI 050353Z 03003KT 10SM CLR 26/04 A2996 RMK AO2 SLP120 T02560044
Observed
Jul-5 @ 03:53 UTC
Wind
  • 030° at 3 KTS
Visibility
10 SM
Flight Rules
VFR
Cloud Levels
  • Clear skies
Temperature
26°C / 79°F
Dewpoint
C / 39°F
Humidity
24%
Altimeter
29.96" Hg
Pressure
1014.52 hPa
Previous

2 hours ago

KBOI 050253Z 02006KT 10SM CLR 28/03 A2996 RMK AO2 SLP120 T02780033 55004
Observed
Jul-5 @ 02:53 UTC
Wind
  • 020° at 6 KTS
Visibility
10 SM
Flight Rules
VFR
Cloud Levels
  • Clear skies
Temperature
28°C / 82°F
Dewpoint
C / 37°F
Humidity
20%
Altimeter
29.96" Hg
Pressure
1014.52 hPa
Previous

3 hours ago

KBOI 050153Z 01009KT 10SM CLR 30/03 A2996 RMK AO2 SLP118 T03000033
Observed
Jul-5 @ 01:53 UTC
Wind
  • 010° at 9 KTS
Visibility
10 SM
Flight Rules
VFR
Cloud Levels
  • Clear skies
Temperature
30°C / 86°F
Dewpoint
C / 37°F
Humidity
18%
Altimeter
29.96" Hg
Pressure
1014.52 hPa